createdAt,value
2018-06-16T00:01:25.814Z,17.70
2018-06-16T00:06:32.018Z,17.70
2018-06-16T00:11:35.412Z,17.60
2018-06-16T00:16:39.857Z,17.60
2018-06-16T00:21:42.924Z,17.50
2018-06-16T00:26:46.211Z,17.50
2018-06-16T00:31:50.379Z,17.40
2018-06-16T00:36:53.214Z,17.40
2018-06-16T00:41:56.698Z,17.30
2018-06-16T00:47:00.403Z,17.30
2018-06-16T00:52:03.965Z,17.20
2018-06-16T00:57:18.873Z,17.20
2018-06-16T01:08:25.983Z,17.10
2018-06-16T01:13:28.515Z,17.00
2018-06-16T01:18:31.042Z,17.00
2018-06-16T01:23:33.563Z,16.90
2018-06-16T01:33:43.222Z,16.80
2018-06-16T01:38:46.591Z,16.80
2018-06-16T01:43:50.963Z,16.70
2018-06-16T01:48:54.310Z,16.70
2018-06-16T01:53:58.613Z,16.60
2018-06-16T01:59:01.457Z,16.60
2018-06-16T02:04:04.965Z,16.60
2018-06-16T02:09:08.005Z,16.50
2018-06-16T02:14:11.556Z,16.40
2018-06-16T02:19:14.554Z,16.40
2018-06-16T02:24:17.966Z,16.30
2018-06-16T02:29:22.583Z,16.30
2018-06-16T02:39:34.044Z,16.20
2018-06-16T02:44:37.478Z,16.20
2018-06-16T02:49:41.752Z,16.10
2018-06-16T02:54:44.837Z,16.10
2018-06-16T02:59:48.235Z,16.00
2018-06-16T03:04:51.209Z,16.00
2018-06-16T03:09:54.521Z,15.90
2018-06-16T03:14:57.704Z,15.90
2018-06-16T03:20:00.614Z,15.80
2018-06-16T03:25:03.661Z,15.80
2018-06-16T03:30:08.251Z,15.80
2018-06-16T03:35:12.797Z,15.70
2018-06-16T03:40:15.692Z,15.70
2018-06-16T03:45:18.717Z,15.70
2018-06-16T03:50:23.237Z,15.70
2018-06-16T03:55:26.762Z,15.60
2018-06-16T04:00:29.807Z,15.60
2018-06-16T04:05:35.106Z,15.60
2018-06-16T04:10:39.449Z,15.60
2018-06-16T04:15:42.877Z,15.50
2018-06-16T04:20:48.898Z,15.50
2018-06-16T04:25:52.454Z,15.50
2018-06-16T04:30:55.341Z,15.50
2018-06-16T04:35:58.846Z,15.60
2018-06-16T04:41:02.208Z,15.60
2018-06-16T04:46:05.643Z,15.60
2018-06-16T04:51:10.059Z,15.70
2018-06-16T04:56:14.196Z,15.90
2018-06-16T05:01:17.064Z,15.90
2018-06-16T05:06:21.384Z,16.00
2018-06-16T05:11:25.673Z,16.10
2018-06-16T05:16:28.458Z,16.20
2018-06-16T05:21:31.399Z,16.40
2018-06-16T05:26:35.887Z,16.60
2018-06-16T05:31:40.218Z,16.70
2018-06-16T05:36:46.234Z,17.00
2018-06-16T05:41:52.773Z,17.20
2018-06-16T05:46:55.798Z,17.50
2018-06-16T05:51:58.980Z,17.80
2018-06-16T05:57:02.599Z,18.10
2018-06-16T06:02:06.844Z,18.30
2018-06-16T06:07:12.577Z,18.90
2018-06-16T06:12:16.640Z,18.90
2018-06-16T06:17:21.106Z,19.20
2018-06-16T06:22:24.144Z,19.50
2018-06-16T06:27:27.031Z,19.70
2018-06-16T06:32:30.594Z,20.10
2018-06-16T06:37:35.014Z,20.30
2018-06-16T06:42:39.191Z,20.60
2018-06-16T06:47:42.674Z,20.90
2018-06-16T06:52:45.621Z,21.20
2018-06-16T06:57:48.539Z,21.50
2018-06-16T07:02:51.413Z,21.80
2018-06-16T07:07:55.717Z,22.40
2018-06-16T07:12:58.646Z,22.40
2018-06-16T07:18:01.585Z,22.70
2018-06-16T07:23:04.471Z,23.00
2018-06-16T07:28:08.692Z,23.30
2018-06-16T07:33:13.138Z,23.50
2018-06-16T07:38:16.568Z,23.80
2018-06-16T07:43:19.849Z,24.10
2018-06-16T07:48:22.880Z,24.50
2018-06-16T07:53:25.839Z,24.80
2018-06-16T07:58:28.735Z,25.00
2018-06-16T08:03:32.677Z,25.20
2018-06-16T08:08:36.412Z,25.70
2018-06-16T08:13:39.384Z,25.70
2018-06-16T08:18:42.260Z,26.00
2018-06-16T08:23:46.622Z,26.20
2018-06-16T08:28:49.296Z,26.50
2018-06-16T08:33:52.752Z,26.70
2018-06-16T08:38:56.130Z,26.90
2018-06-16T08:43:59.022Z,27.10
2018-06-16T08:49:02.041Z,27.30
2018-06-16T08:54:06.373Z,27.50
2018-06-16T08:59:09.834Z,27.60
2018-06-16T09:04:16.096Z,27.80
2018-06-16T09:09:18.883Z,28.00
2018-06-16T09:14:22.142Z,28.20
2018-06-16T09:19:25.093Z,28.30
2018-06-16T09:24:27.797Z,28.50
2018-06-16T09:29:30.723Z,28.60
2018-06-16T09:34:33.686Z,28.80
2018-06-16T09:39:36.727Z,28.90
2018-06-16T09:44:40.525Z,28.90
2018-06-16T09:49:43.402Z,29.00
2018-06-16T09:54:46.897Z,29.10
2018-06-16T09:59:50.045Z,29.30
2018-06-16T10:04:53.530Z,29.40
2018-06-16T10:09:56.361Z,29.50
2018-06-16T10:20:06.094Z,29.70
2018-06-16T10:25:09.233Z,29.80
2018-06-16T10:30:12.207Z,29.80
2018-06-16T10:35:15.006Z,29.90
2018-06-16T10:40:17.715Z,29.90
2018-06-16T10:45:20.537Z,30.10
2018-06-16T10:50:23.643Z,30.20
2018-06-16T10:55:29.078Z,30.30
2018-06-16T11:00:33.369Z,30.40
2018-06-16T11:05:36.897Z,30.40
2018-06-16T11:10:39.531Z,30.60
2018-06-16T11:15:42.143Z,30.60
2018-06-16T11:20:46.334Z,30.70
2018-06-16T11:25:49.171Z,30.70
2018-06-16T11:30:52.028Z,30.90
2018-06-16T11:35:56.319Z,31.00
2018-06-16T11:40:59.253Z,31.00
2018-06-16T11:46:02.121Z,31.00
2018-06-16T11:51:05.468Z,31.10
2018-06-16T11:56:08.975Z,31.10
2018-06-16T12:01:11.805Z,31.20
2018-06-16T12:06:14.613Z,31.20
2018-06-16T12:11:17.173Z,31.30
2018-06-16T12:16:20.421Z,31.30
2018-06-16T12:21:22.986Z,31.30
2018-06-16T12:26:25.600Z,31.40
2018-06-16T12:31:28.491Z,31.40
2018-06-16T12:36:31.616Z,31.50
2018-06-16T12:41:34.137Z,31.50
2018-06-16T12:46:36.658Z,31.50
2018-06-16T12:51:39.176Z,31.60
2018-06-16T12:56:42.297Z,31.60
2018-06-16T13:01:45.079Z,31.60
2018-06-16T13:06:48.866Z,31.50
2018-06-16T13:11:51.593Z,31.50
2018-06-16T13:16:54.566Z,31.50
2018-06-16T13:21:57.585Z,31.50
2018-06-16T13:27:00.397Z,31.50
2018-06-16T13:32:04.060Z,31.40
2018-06-16T13:37:07.791Z,31.50
2018-06-16T13:42:11.519Z,31.50
2018-06-16T13:47:15.653Z,31.40
2018-06-16T13:52:18.444Z,31.40
2018-06-16T13:57:21.127Z,31.50
2018-06-16T14:02:23.746Z,31.50
2018-06-16T14:07:26.646Z,31.50
2018-06-16T14:12:29.547Z,31.40
2018-06-16T14:17:33.188Z,31.40
2018-06-16T14:22:36.062Z,31.40
2018-06-16T14:27:40.051Z,31.20
2018-06-16T14:32:43.049Z,31.20
2018-06-16T14:37:46.507Z,31.00
2018-06-16T14:42:49.139Z,31.00
2018-06-16T14:47:52.310Z,31.00
2018-06-16T14:52:55.798Z,31.00
2018-06-16T14:57:59.127Z,30.90
2018-06-16T15:03:02.197Z,30.80
2018-06-16T15:08:05.542Z,30.80
2018-06-16T15:13:08.506Z,30.70
2018-06-16T15:18:12.927Z,30.70
2018-06-16T15:23:16.285Z,30.70
2018-06-16T15:28:19.334Z,30.70
2018-06-16T15:33:22.385Z,30.60
2018-06-16T15:38:25.375Z,30.60
2018-06-16T15:43:30.604Z,30.60
2018-06-16T15:48:34.146Z,30.50
2018-06-16T15:53:38.475Z,30.50
2018-06-16T15:58:42.253Z,30.40
2018-06-16T16:03:45.107Z,30.30
2018-06-16T16:08:49.629Z,30.30
2018-06-16T16:13:52.212Z,30.30
2018-06-16T16:18:55.674Z,30.30
2018-06-16T16:24:00.032Z,30.10
2018-06-16T16:29:04.126Z,30.10
2018-06-16T16:34:08.810Z,30.00
2018-06-16T16:39:13.460Z,29.90
2018-06-16T16:44:22.598Z,29.80
2018-06-16T16:49:29.935Z,29.80
2018-06-16T16:54:35.580Z,29.70
2018-06-16T16:59:40.194Z,29.60
2018-06-16T17:04:42.796Z,29.50
2018-06-16T17:09:49.537Z,29.30
2018-06-16T17:15:02.139Z,29.20
2018-06-16T17:20:22.580Z,29.00
2018-06-16T17:30:38.001Z,28.70
2018-06-16T17:35:48.061Z,28.60
2018-06-16T17:46:02.012Z,28.30
2018-06-16T17:51:10.700Z,28.20
2018-06-16T17:56:15.386Z,28.00
2018-06-16T18:11:58.375Z,27.50
2018-06-16T18:17:00.895Z,27.30
2018-06-16T18:22:03.415Z,27.20
2018-06-16T18:27:05.935Z,27.00
2018-06-16T18:32:09.487Z,26.90
2018-06-16T18:42:32.689Z,26.60
2018-06-16T18:52:48.455Z,26.30
2018-06-16T18:57:56.246Z,26.10
2018-06-16T19:03:06.232Z,26.00
2018-06-16T19:08:11.564Z,25.80
2018-06-16T19:13:18.920Z,25.70
2018-06-16T19:18:22.623Z,25.50
2018-06-16T19:23:28.391Z,25.30
2018-06-16T19:28:37.141Z,24.90
2018-06-16T19:33:43.477Z,24.90
2018-06-16T19:44:02.286Z,24.60
2018-06-16T19:49:05.893Z,24.40
2018-06-16T19:54:10.899Z,24.20
2018-06-16T19:59:17.998Z,24.00
2018-06-16T20:04:20.592Z,23.90
2018-06-16T20:09:23.112Z,23.80
2018-06-16T20:14:25.627Z,23.60
2018-06-16T20:19:28.153Z,23.40
2018-06-16T20:24:30.663Z,23.30
2018-06-16T20:29:34.729Z,22.90
2018-06-16T20:34:37.247Z,22.90
2018-06-16T20:39:39.788Z,22.80
2018-06-16T20:44:43.316Z,22.50
2018-06-16T20:49:46.592Z,22.40
2018-06-16T20:54:49.112Z,22.40
2018-06-16T20:59:51.623Z,22.20
2018-06-16T21:04:55.611Z,22.10
2018-06-16T21:10:02.599Z,22.00
2018-06-16T21:15:10.286Z,21.90
2018-06-16T21:20:15.114Z,21.80
2018-06-16T21:25:21.433Z,21.60
2018-06-16T21:35:36.537Z,21.40
2018-06-16T21:51:04.875Z,21.10
2018-06-16T21:56:07.432Z,20.90
2018-06-16T22:01:09.964Z,20.90
2018-06-16T22:06:12.480Z,20.70
2018-06-16T22:11:14.991Z,20.70
2018-06-16T22:16:17.504Z,20.60
2018-06-16T22:21:20.041Z,20.50
2018-06-16T22:26:22.556Z,20.40
2018-06-16T22:31:25.093Z,20.30
2018-06-16T22:36:27.599Z,20.20
2018-06-16T22:41:30.900Z,20.00
2018-06-16T22:46:33.417Z,20.00
2018-06-16T22:51:35.928Z,19.90
2018-06-16T22:56:38.438Z,19.80
2018-06-16T23:01:40.965Z,19.70
2018-06-16T23:06:43.476Z,19.70
2018-06-16T23:11:46.005Z,19.60
2018-06-16T23:16:49.284Z,19.40
2018-06-16T23:21:51.811Z,19.40
2018-06-16T23:26:54.336Z,19.40
2018-06-16T23:32:00.719Z,19.30
2018-06-16T23:37:04.293Z,19.20
2018-06-16T23:42:09.476Z,19.10
2018-06-16T23:47:15.171Z,19.10
2018-06-16T23:52:19.895Z,19.00
2018-06-16T23:57:26.750Z,19.00
